Overton, Nevada Weather observations

Data are for observation ending at time listed.
 Day   Time    Ave.   Ave.  Ave.  Vector   Max.   Stn.    Total    Solar   Ave.  
  of    of     Air    Rel.  Wind   Wind    Wind   Baro.  Precip.   Rad.    Soil  
Year   Day     Temp.  Hum.  Speed  Dir.    Gust   Pres.                    Temp. 
2014   (PST)    F      %     mph   deg.    mph     mb.     in.     W/m2     F   
------------------------------------------------------------------------------
 258   15:30  104.4    12    3.6   339      6.7   965.9    0.00     374    95.7
 258   15:40  104.7    12    2.8    12      5.0   965.8    0.00     353    95.8
 258   15:50  104.6    12    3.0   347      5.0   965.7    0.00     301    95.7
 258   16:00  104.1    12    3.2   353      4.3   965.6    0.00     293    95.7
 258   16:10  104.1    14    2.6     6      4.2   965.5    0.00     263    95.7
 258   16:20  103.5    14    2.5     0      3.7   965.4    0.00     233    95.7
 258   16:30  103.0    14    3.0   358      3.7   965.3    0.00     203    95.6
 258   16:40  102.7    14    2.6     8      3.5   965.2    0.00     169    95.5
 258   16:50  102.4    15    2.3    13      3.4   965.1    0.00     141    95.4
 258   17:00  102.0    16    0.7   344      1.8   965.1    0.00     106    95.3
 258   17:10  101.7    17    1.4   347      2.0   965.0    0.00      82    95.1
 258   17:20   99.1    24    1.5   355      2.3   964.9    0.00      48    94.9
 258   17:30   95.5    27    1.8     5      2.0   964.6    0.00      13    94.7
 258   17:40   92.5    29    2.1   358      3.7   964.2    0.00       9    94.5
 258   17:50   91.6    24    1.4   347      2.3   963.9    0.00       3    94.1
 258   18:00   91.8    27    0.8   287      2.3   963.8    0.00       2    99999.0
 258   18:10   89.7    28    1.6   291      2.6   963.6    0.00       0    93.5
 258   18:20   87.7    34    1.2   310      1.8   963.5    0.00       0    93.1
 258   18:30   86.9    32    1.0   310      1.8   963.6    0.00       0    92.7
 258   18:40   86.0    34    1.2   314      2.6   963.6    0.00       0    92.4
 258   18:50   86.1    31    1.9   301      3.2   963.6    0.00       0    92.0
 258   19:00   86.1    30    0.8   272      1.9   963.6    0.00       0    91.6
 258   19:10   85.8    29    1.3   287      2.3   963.7    0.00       0    91.3
 258   19:20   85.9    27    2.1   291      3.5   963.7    0.00       0    91.0
 258   19:30   85.2    28    1.5   299      3.0   963.7    0.00       0    90.6
 258   19:40   82.4    37    1.9   339      2.8   963.8    0.00       0    90.3
 258   19:50   81.1    38    2.6   340      3.1   963.8    0.00       0    90.0
 258   20:00   81.7    34    2.8   313      4.5   963.8    0.00       0    89.7
 258   20:10   82.8    34    1.1   292      3.2   963.8    0.00       0    89.5
 258   20:20   81.9    34    1.0   301      2.4   963.8    0.00       0    89.2
 258   20:30   80.3    41    2.5   328      3.6   963.8    0.00       0    99999.0
 258   20:40   80.3    36    1.8   291      3.7   963.8    0.00       0    89.5
 258   20:50   81.8    31    1.5   290      3.5   963.9    0.00       0    89.0
 258   21:00   78.9    40    1.8   309      3.8   963.9    0.00       0    88.8
 258   21:10   78.5    39    0.5   263      2.3   963.9    0.00       0    99999.0
 258   21:20   78.9    38    0.7   297      1.5   964.0    0.00       0    87.8
 258   21:30   79.6    34    0.6   278      1.4   964.2    0.00       0    87.5
 258   21:40   79.1    41    0.6   319      1.5   964.3    0.00       0    87.2
 258   21:50   77.9    41    0.6   307      1.5   964.3    0.00       0    87.0
 258   22:00   77.4    42    0.4   298      1.3   964.3    0.00       0    86.8
 258   22:10   77.7    39    2.1   298      3.6   964.4    0.00       0    86.6
 258   22:20   79.7    34    2.0   267      3.6   964.3    0.00       0    86.4
 258   22:30   80.0    34    1.3   271      4.3   964.4    0.00       0    86.2
 258   22:40   78.1    38    2.3   298      3.4   964.4    0.00       0    86.0
 258   22:50   76.7    42    2.3   299      3.6   964.3    0.00       0    85.8
 258   23:00   75.1    46    1.6   311      3.1   964.3    0.00       0    99999.0
 258   23:10   75.1    45    2.0   304      3.6   964.3    0.00       0    85.6
 258   23:20   74.7    51    2.7   337      3.7   964.1    0.00       0    85.4
 258   23:30   74.3    48    3.5   325      4.6   964.1    0.00       0    85.2
 258   23:40   74.1    49    2.5   319      4.6   964.1    0.00       0    99999.0
 258   23:50   74.3    48    1.4   298      2.5   964.1    0.00       0    84.9
 259    0:00   75.6    42    1.1   275      2.3   964.2    0.00       0    99999.0
 259    0:10   77.2    38    0.1   254      1.6   964.3    0.00       0    84.3
 259    0:20   76.1    46    0.7    52      3.1   964.4    0.00       0    84.1
 259    0:30   74.2    51    0.5   302      1.5   964.4    0.00       0    83.9
 259    0:40   74.9    44    1.2   277      2.1   964.4    0.00       0    83.8
 259    0:50   74.2    48    1.1   272      2.8   964.4    0.00       0    83.6
 259    1:00   72.1    53    1.6   337      2.9   964.4    0.00       0    83.4
 259    1:10   70.7    58    2.1   332      3.0   964.3    0.00       0    83.3
 259    1:20   70.7    55    1.7   312      2.5   964.3    0.00       0    83.1
 259    1:30   71.6    53    1.2   298      1.9   964.2    0.00       0    82.8
 259    1:40   70.5    57    2.5   309      4.6   964.1    0.00       0    82.7
 259    1:50   72.3    45    2.6   295      4.5   964.1    0.00       0    82.5
 259    2:00   73.0    45    1.5   330      2.8   964.1    0.00       0    82.3
 259    2:10   72.9    46    0.5    23      1.8   964.2    0.00       0    82.2
 259    2:20   73.5    45    1.4   283      2.6   964.1    0.00       0    82.1
 259    2:30   72.1    50    0.2   275      2.0   964.2    0.00       0    82.0
 259    2:40   71.2    51    0.1   252      1.2   964.3    0.00       0    81.8
 259    2:50   72.4    44    2.2   256      3.8   964.3    0.00       0    81.7
 259    3:00   73.8    41    1.8   250      3.5   964.4    0.00       0    81.5
 259    3:10   71.7    49    1.6   337      2.3   964.4    0.00       0    81.4
 259    3:20   70.5    52    1.4   328      2.1   964.4    0.00       0    99999.0
 259    3:30   69.2    58    1.6   359      2.6   964.4    0.00       0    81.5
 259    3:40   69.9    51    0.8   352      1.2   964.4    0.00       0    81.2
 259    3:50   70.7    51    0.9   331      1.5   964.4    0.00       0    81.1
 259    4:00   69.6    53    1.0   310      1.5   964.4    0.00       0    80.9
 259    4:10   69.8    54    0.3   259      1.2   964.5    0.00       0    80.7
 259    4:20   68.4    60    0.9   320      1.5   964.5    0.00       0    99999.0
 259    4:30   68.2    59    1.3   327      1.9   964.6    0.00       0    99999.0
 259    4:40   68.6    55    0.5   305      1.3   964.7    0.00       0    99999.0
 259    4:50   68.5    58    0.7   308      2.0   964.8    0.00       0    80.0
 259    5:00   67.3    60    1.4   292      2.1   964.8    0.00       0    79.9
 259    5:10   67.8    58    0.7   304      2.1   964.9    0.00       0    99999.0
 259    5:20   67.4    62    1.2   327      2.2   965.0    0.00       3    99999.0
 259    5:30   68.2    57    0.8    16      2.0   965.1    0.00       5    79.5
 259    5:40   69.1    55    0.5   308      1.2   965.2    0.00      11    79.4
 259    5:50   68.9    58    0.4   281      1.2   965.3    0.00      29    79.4
 259    6:00   69.1    60    0.7   293      1.8   965.5    0.00      57    79.5
 259    6:10   70.5    57    0.7   336      1.3   965.6    0.00      61    79.7
 259    6:20   73.7    47    0.5   274      1.4   965.8    0.00      86    80.1
 259    6:30   76.6    44    1.0   298      2.6   966.1    0.00      89    80.7
 259    6:40   77.3    43    1.3   342      2.2   966.4    0.00      53    81.4
 259    6:50   78.4    42    1.1   341      2.5   966.7    0.00      18    82.0
 259    7:00   79.1    41    1.6   337      2.8   966.9    0.00      17    82.7
 259    7:10   80.3    39    1.6   339      4.1   967.1    0.00      89    83.5
 259    7:20   81.2    34    2.9   337      4.7   967.3    0.00      11    84.3
 259    7:30   82.1    32    3.9   336      5.6   967.4    0.00      32    85.1
 259    7:40   83.0    30    4.1   336      5.9   967.6    0.00      35    85.8
 259    7:50   83.9    29    5.4   331      7.7   967.7    0.00     188    86.6
 259    8:00   85.0    26    4.5   342      7.0   967.9    0.00     390    87.3
 259    8:10   86.1    25    4.3   326      6.4   968.0    0.00     340    88.2
 259    8:20   86.6    24    4.5   331      7.8   968.2    0.00     200    89.1
 259    8:30   87.3    22    4.7   325      8.0   968.2    0.00     272    90.0
 259    8:40   88.3    22    4.2   338      7.2   968.4    0.00      71    99999.0
 259    8:50   88.9    21    3.6   333      6.7   968.5    0.00     474    99999.0
 259    9:00   89.9    21    2.7   352      6.2   968.6    0.00     522    92.6
 259    9:10   91.1    20    2.0   341      4.0   968.6    0.00     557    93.5
 259    9:20   91.6    19    2.5   348      4.8   968.6    0.00     177    94.4
 259    9:30   93.5    18    0.8    16      2.7   968.7    0.00     609    95.2
 259    9:40   94.8    18    1.5   359      3.1   968.7    0.00     502    99999.0
 259    9:50   94.5    18    1.7    32      3.9   968.7    0.00     637    99999.0
 259   10:00   94.7    18    2.1    59      3.7   968.7    0.00     540    99999.0
 259   10:10   95.1    19    2.1   130      4.2   968.7    0.00     231    99999.0
 259   10:20   95.4    19    1.6    67      3.7   968.5    0.00     182    99999.0
 259   10:30   96.5    20    1.8   107      3.9   968.5    0.00     499    99999.0
 259   10:40   97.4    21    2.3    97      6.2   968.4    0.00     580    99999.0
 259   10:50   97.4    22    2.6   113      5.1   968.2    0.00     565    99999.0
 259   11:00   98.3    21    1.6   127      4.4   968.1    0.00     624    97.1
 259   11:10   99.0    21    2.6   123      6.9   968.0    0.00     574    99999.0
 259   11:20   98.4    21    2.6    95      5.3   967.9    0.00     731    99999.0
 259   11:30   99.0    21    2.1   107      4.7   967.8    0.00     732    96.0
 259   11:40   99.5    21    2.3    59      5.9   967.6    0.00     732    95.6
 259   11:50   99.8    22    2.8    75      6.0   967.4    0.00     732    95.4
 259   12:00   99.0    23    2.5   197      6.2   967.3    0.00     730    95.3
 259   12:10   99.7    23    2.2   253      5.3   967.1    0.00     723    99999.0
 259   12:20  101.8    21    1.4   245      3.5   966.9    0.00     543    94.9
 259   12:30  101.7    21    2.6    88      5.5   966.8    0.00     118    94.8
 259   12:40  101.8    21    1.7    63      4.5   966.7    0.00      23    94.7
 259   12:50  104.0    19    0.7   276      3.1   966.5    0.00     517    94.5
 259   13:00  102.5    20    2.0   313      4.0   966.3    0.00     693    94.5
 259   13:10  102.5    20    3.3     2      7.3   966.1    0.00     678    94.5
 259   13:20  101.7    20    5.0   353      8.0   965.9    0.00     661    94.6
 259   13:30  102.1    20    3.6    16      5.3   965.7    0.00     648    99999.0
 259   13:40  102.8    20    4.8    40      7.1   965.6    0.00     613    99999.0
 259   13:50  102.5    19    4.1    34      6.4   965.5    0.00     602    95.4
 259   14:00  102.7    19    2.5    28      5.0   965.4    0.00     344    99999.0
 259   14:10  102.7    19    2.6   345      5.3   965.3    0.00     571    99999.0
 259   14:20  103.1    18    2.6   356      5.9   965.1    0.00     550    99999.0
 259   14:30  103.1    18    2.1   343      5.0   965.0    0.00     526    96.7
 259   14:40  103.3    18    2.6    64      5.3   964.8    0.00     494    99999.0
 259   14:50  103.2    17    2.8    23      7.7   964.6    0.00     477    99999.0
 259   15:00  103.4    16    2.7   349      7.5   964.5    0.00     447    99999.0
 259   15:10  103.8    16    1.6   341      6.4   964.3    0.00     398    99999.0
 259   15:20  103.1    16    1.4   324      3.6   964.2    0.00     146    99999.0

Return to Overton, Nevada graphs page.


Western Regional Climate Center,wrcc@dri.edu